sensor_id;sensor_type;location;lat;lon;timestamp;pressure;altitude;pressure_sealevel;temperature;humidity
54554;BME280;40450;55.848;-3.572;2022-08-30T00:02:10;100648.45;;;15.84;83.11
54554;BME280;40450;55.848;-3.572;2022-08-30T00:04:41;100644.99;;;15.04;85.26
54554;BME280;40450;55.848;-3.572;2022-08-30T00:07:11;100643.96;;;16.64;81.07
54554;BME280;40450;55.848;-3.572;2022-08-30T00:09:42;100646.00;;;16.37;81.50
54554;BME280;40450;55.848;-3.572;2022-08-30T00:12:12;100643.80;;;16.47;81.82
54554;BME280;40450;55.848;-3.572;2022-08-30T00:14:48;100640.49;;;16.60;80.54
54554;BME280;40450;55.848;-3.572;2022-08-30T00:17:13;100642.44;;;16.09;81.69
54554;BME280;40450;55.848;-3.572;2022-08-30T00:19:43;100642.27;;;14.81;87.11
54554;BME280;40450;55.848;-3.572;2022-08-30T00:22:18;100649.31;;;13.36;91.83
54554;BME280;40450;55.848;-3.572;2022-08-30T00:24:44;100652.22;;;14.31;89.58
54554;BME280;40450;55.848;-3.572;2022-08-30T00:27:14;100649.35;;;14.94;88.05
54554;BME280;40450;55.848;-3.572;2022-08-30T00:29:44;100650.19;;;13.63;91.64
54554;BME280;40450;55.848;-3.572;2022-08-30T00:32:15;100650.97;;;13.09;93.53
54554;BME280;40450;55.848;-3.572;2022-08-30T00:34:45;100657.87;;;12.24;96.01
54554;BME280;40450;55.848;-3.572;2022-08-30T00:37:16;100651.09;;;14.45;91.96
54554;BME280;40450;55.848;-3.572;2022-08-30T00:39:46;100649.99;;;14.33;90.11
54554;BME280;40450;55.848;-3.572;2022-08-30T00:42:17;100651.56;;;13.91;90.72
54554;BME280;40450;55.848;-3.572;2022-08-30T00:44:48;100652.71;;;13.26;93.32
54554;BME280;40450;55.848;-3.572;2022-08-30T00:47:18;100651.14;;;16.24;85.92
54554;BME280;40450;55.848;-3.572;2022-08-30T00:49:51;100655.47;;;14.23;90.01
54554;BME280;40450;55.848;-3.572;2022-08-30T00:52:19;100658.57;;;16.49;86.61
54554;BME280;40450;55.848;-3.572;2022-08-30T00:54:49;100655.54;;;16.83;83.21
54554;BME280;40450;55.848;-3.572;2022-08-30T00:57:19;100656.59;;;14.73;87.62
54554;BME280;40450;55.848;-3.572;2022-08-30T00:59:49;100653.69;;;16.51;81.63
54554;BME280;40450;55.848;-3.572;2022-08-30T01:02:22;100658.37;;;14.95;86.41
54554;BME280;40450;55.848;-3.572;2022-08-30T01:04:50;100659.01;;;13.44;92.44
54554;BME280;40450;55.848;-3.572;2022-08-30T01:07:20;100655.15;;;15.40;86.44
54554;BME280;40450;55.848;-3.572;2022-08-30T01:09:51;100661.30;;;15.30;87.22
54554;BME280;40450;55.848;-3.572;2022-08-30T01:12:21;100665.64;;;16.50;83.68
54554;BME280;40450;55.848;-3.572;2022-08-30T01:14:51;100661.30;;;15.82;83.59
54554;BME280;40450;55.848;-3.572;2022-08-30T01:17:21;100652.30;;;17.15;79.72
54554;BME280;40450;55.848;-3.572;2022-08-30T01:19:53;100657.28;;;15.62;84.87
54554;BME280;40450;55.848;-3.572;2022-08-30T01:22:32;100658.01;;;14.99;87.08
54554;BME280;40450;55.848;-3.572;2022-08-30T01:24:55;100659.81;;;13.93;90.29
54554;BME280;40450;55.848;-3.572;2022-08-30T01:27:23;100659.92;;;12.69;94.14
54554;BME280;40450;55.848;-3.572;2022-08-30T01:29:53;100649.53;;;14.42;89.19
54554;BME280;40450;55.848;-3.572;2022-08-30T01:32:25;100647.45;;;14.74;88.93
54554;BME280;40450;55.848;-3.572;2022-08-30T01:34:53;100650.18;;;13.69;91.89
54554;BME280;40450;55.848;-3.572;2022-08-30T01:37:31;100646.49;;;15.43;88.06
54554;BME280;40450;55.848;-3.572;2022-08-30T01:39:55;100651.00;;;15.91;85.68
54554;BME280;40450;55.848;-3.572;2022-08-30T01:42:25;100652.16;;;16.31;85.02
54554;BME280;40450;55.848;-3.572;2022-08-30T01:44:56;100655.77;;;15.87;83.96
54554;BME280;40450;55.848;-3.572;2022-08-30T01:47:27;100655.55;;;15.09;86.83
54554;BME280;40450;55.848;-3.572;2022-08-30T01:49:57;100657.90;;;13.30;92.92
54554;BME280;40450;55.848;-3.572;2022-08-30T01:52:27;100660.14;;;13.08;93.55
54554;BME280;40450;55.848;-3.572;2022-08-30T01:54:58;100660.31;;;13.57;92.25
54554;BME280;40450;55.848;-3.572;2022-08-30T01:57:28;100658.00;;;14.70;90.78
54554;BME280;40450;55.848;-3.572;2022-08-30T01:59:58;100662.45;;;14.47;88.56
54554;BME280;40450;55.848;-3.572;2022-08-30T02:02:29;100663.47;;;13.00;94.10
54554;BME280;40450;55.848;-3.572;2022-08-30T02:04:59;100659.55;;;13.36;92.35
54554;BME280;40450;55.848;-3.572;2022-08-30T02:07:34;100661.49;;;13.73;92.01
54554;BME280;40450;55.848;-3.572;2022-08-30T02:10:00;100659.55;;;15.05;90.00
54554;BME280;40450;55.848;-3.572;2022-08-30T02:12:31;100658.76;;;16.02;88.25
54554;BME280;40450;55.848;-3.572;2022-08-30T02:15:01;100653.64;;;17.42;84.15
54554;BME280;40450;55.848;-3.572;2022-08-30T02:17:32;100662.20;;;16.42;82.41
54554;BME280;40450;55.848;-3.572;2022-08-30T02:20:05;100660.38;;;16.45;82.46
54554;BME280;40450;55.848;-3.572;2022-08-30T02:22:33;100651.89;;;17.10;81.66
54554;BME280;40450;55.848;-3.572;2022-08-30T02:25:08;100660.09;;;16.19;82.67
54554;BME280;40450;55.848;-3.572;2022-08-30T02:27:34;100659.01;;;15.10;86.52
54554;BME280;40450;55.848;-3.572;2022-08-30T02:30:07;100658.27;;;15.12;87.07
54554;BME280;40450;55.848;-3.572;2022-08-30T02:32:35;100664.24;;;15.28;87.69
54554;BME280;40450;55.848;-3.572;2022-08-30T02:35:06;100666.90;;;16.05;83.45
54554;BME280;40450;55.848;-3.572;2022-08-30T02:37:36;100667.33;;;13.27;91.74
54554;BME280;40450;55.848;-3.572;2022-08-30T02:40:07;100676.09;;;11.53;97.57
54554;BME280;40450;55.848;-3.572;2022-08-30T02:42:36;100671.47;;;13.40;92.98
54554;BME280;40450;55.848;-3.572;2022-08-30T02:45:12;100675.23;;;12.68;94.41
54554;BME280;40450;55.848;-3.572;2022-08-30T02:47:37;100670.05;;;13.94;92.01
54554;BME280;40450;55.848;-3.572;2022-08-30T02:50:09;100670.92;;;16.01;86.50
54554;BME280;40450;55.848;-3.572;2022-08-30T02:52:38;100671.70;;;13.08;92.58
54554;BME280;40450;55.848;-3.572;2022-08-30T02:55:10;100677.97;;;10.85;99.01
54554;BME280;40450;55.848;-3.572;2022-08-30T02:57:40;100674.93;;;13.23;93.53
54554;BME280;40450;55.848;-3.572;2022-08-30T03:00:14;100680.00;;;13.91;92.63
54554;BME280;40450;55.848;-3.572;2022-08-30T03:02:41;100679.87;;;14.19;91.00
54554;BME280;40450;55.848;-3.572;2022-08-30T03:05:14;100681.66;;;13.28;92.26
54554;BME280;40450;55.848;-3.572;2022-08-30T03:07:42;100684.90;;;12.97;93.67
54554;BME280;40450;55.848;-3.572;2022-08-30T03:10:12;100679.87;;;13.51;92.48
54554;BME280;40450;55.848;-3.572;2022-08-30T03:12:42;100681.52;;;13.53;91.00
54554;BME280;40450;55.848;-3.572;2022-08-30T03:15:15;100682.28;;;13.99;91.52
54554;BME280;40450;55.848;-3.572;2022-08-30T03:17:43;100679.54;;;16.03;85.70
54554;BME280;40450;55.848;-3.572;2022-08-30T03:20:13;100678.70;;;15.91;84.75
54554;BME280;40450;55.848;-3.572;2022-08-30T03:22:43;100673.92;;;17.27;82.91
54554;BME280;40450;55.848;-3.572;2022-08-30T03:25:14;100679.10;;;15.24;83.72
54554;BME280;40450;55.848;-3.572;2022-08-30T03:27:44;100678.10;;;15.52;83.25
54554;BME280;40450;55.848;-3.572;2022-08-30T03:30:15;100689.31;;;12.84;91.88
54554;BME280;40450;55.848;-3.572;2022-08-30T03:32:50;100687.29;;;14.04;88.34
54554;BME280;40450;55.848;-3.572;2022-08-30T03:35:16;100685.30;;;14.34;88.40
54554;BME280;40450;55.848;-3.572;2022-08-30T03:37:46;100685.33;;;16.14;82.22
54554;BME280;40450;55.848;-3.572;2022-08-30T03:40:18;100684.81;;;15.97;82.89
54554;BME280;40450;55.848;-3.572;2022-08-30T03:42:47;100677.56;;;17.28;80.00
54554;BME280;40450;55.848;-3.572;2022-08-30T03:45:18;100681.75;;;17.01;78.51
54554;BME280;40450;55.848;-3.572;2022-08-30T03:47:47;100685.84;;;14.54;85.67
54554;BME280;40450;55.848;-3.572;2022-08-30T03:50:17;100687.84;;;13.56;89.28
54554;BME280;40450;55.848;-3.572;2022-08-30T03:52:48;100684.88;;;15.10;86.45
54554;BME280;40450;55.848;-3.572;2022-08-30T03:55:19;100684.14;;;14.63;85.16
54554;BME280;40450;55.848;-3.572;2022-08-30T03:57:49;100688.27;;;12.08;93.69
54554;BME280;40450;55.848;-3.572;2022-08-30T04:00:21;100688.47;;;12.80;91.74
54554;BME280;40450;55.848;-3.572;2022-08-30T04:02:50;100679.64;;;13.15;90.52
54554;BME280;40450;55.848;-3.572;2022-08-30T04:05:20;100682.89;;;11.51;94.99
54554;BME280;40450;55.848;-3.572;2022-08-30T04:07:50;100681.21;;;12.64;92.36
54554;BME280;40450;55.848;-3.572;2022-08-30T04:10:21;100678.88;;;12.07;93.54
54554;BME280;40450;55.848;-3.572;2022-08-30T04:12:51;100676.66;;;11.90;94.24
54554;BME280;40450;55.848;-3.572;2022-08-30T04:15:26;100677.35;;;12.04;94.22
54554;BME280;40450;55.848;-3.572;2022-08-30T04:17:52;100678.33;;;12.95;92.12
54554;BME280;40450;55.848;-3.572;2022-08-30T04:20:22;100684.48;;;12.43;92.96
54554;BME280;40450;55.848;-3.572;2022-08-30T04:22:52;100685.01;;;11.24;95.89
54554;BME280;40450;55.848;-3.572;2022-08-30T04:25:23;100688.14;;;10.90;96.73
54554;BME280;40450;55.848;-3.572;2022-08-30T04:27:53;100687.37;;;12.04;95.46
54554;BME280;40450;55.848;-3.572;2022-08-30T04:30:23;100688.46;;;12.54;92.22
54554;BME280;40450;55.848;-3.572;2022-08-30T04:32:54;100690.92;;;12.41;92.61
54554;BME280;40450;55.848;-3.572;2022-08-30T04:35:23;100690.99;;;12.09;93.73
54554;BME280;40450;55.848;-3.572;2022-08-30T04:37:55;100692.56;;;11.33;95.52
54554;BME280;40450;55.848;-3.572;2022-08-30T04:40:25;100689.92;;;14.54;91.13
54554;BME280;40450;55.848;-3.572;2022-08-30T04:42:54;100691.97;;;14.44;85.85
54554;BME280;40450;55.848;-3.572;2022-08-30T04:45:25;100694.10;;;14.45;86.05
54554;BME280;40450;55.848;-3.572;2022-08-30T04:47:55;100690.62;;;14.78;86.61
54554;BME280;40450;55.848;-3.572;2022-08-30T04:50:26;100695.18;;;13.70;87.69
54554;BME280;40450;55.848;-3.572;2022-08-30T04:52:56;100701.33;;;11.87;92.90
54554;BME280;40450;55.848;-3.572;2022-08-30T04:55:26;100702.85;;;12.76;90.09
54554;BME280;40450;55.848;-3.572;2022-08-30T04:57:56;100700.96;;;14.49;86.47
54554;BME280;40450;55.848;-3.572;2022-08-30T05:00:27;100703.17;;;14.61;86.86
54554;BME280;40450;55.848;-3.572;2022-08-30T05:03:03;100706.82;;;13.03;90.58
54554;BME280;40450;55.848;-3.572;2022-08-30T05:05:28;100700.88;;;14.40;85.68
54554;BME280;40450;55.848;-3.572;2022-08-30T05:08:03;100713.25;;;12.62;90.25
54554;BME280;40450;55.848;-3.572;2022-08-30T05:10:28;100705.71;;;14.74;85.40
54554;BME280;40450;55.848;-3.572;2022-08-30T05:12:59;100708.13;;;14.27;85.16
54554;BME280;40450;55.848;-3.572;2022-08-30T05:15:29;100707.06;;;14.68;84.35
54554;BME280;40450;55.848;-3.572;2022-08-30T05:17:59;100704.86;;;14.28;84.87
54554;BME280;40450;55.848;-3.572;2022-08-30T05:20:30;100707.62;;;12.79;89.38
54554;BME280;40450;55.848;-3.572;2022-08-30T05:23:00;100706.75;;;12.69;89.35
54554;BME280;40450;55.848;-3.572;2022-08-30T05:25:33;100708.96;;;12.81;89.43
54554;BME280;40450;55.848;-3.572;2022-08-30T05:28:06;100708.78;;;13.90;85.86
54554;BME280;40450;55.848;-3.572;2022-08-30T05:30:33;100707.90;;;13.47;88.17
54554;BME280;40450;55.848;-3.572;2022-08-30T05:33:06;100717.30;;;11.96;91.79
54554;BME280;40450;55.848;-3.572;2022-08-30T05:35:32;100720.91;;;11.30;94.05
54554;BME280;40450;55.848;-3.572;2022-08-30T05:38:02;100724.41;;;11.23;94.32
54554;BME280;40450;55.848;-3.572;2022-08-30T05:40:33;100725.64;;;12.84;90.95
54554;BME280;40450;55.848;-3.572;2022-08-30T05:43:03;100722.37;;;13.36;89.09
54554;BME280;40450;55.848;-3.572;2022-08-30T05:45:38;100721.62;;;13.32;88.96
54554;BME280;40450;55.848;-3.572;2022-08-30T05:48:04;100723.78;;;11.73;93.05
54554;BME280;40450;55.848;-3.572;2022-08-30T05:50:34;100726.98;;;12.03;92.52
54554;BME280;40450;55.848;-3.572;2022-08-30T05:53:05;100721.64;;;13.62;90.44
54554;BME280;40450;55.848;-3.572;2022-08-30T05:55:40;100724.75;;;13.75;87.58
54554;BME280;40450;55.848;-3.572;2022-08-30T05:58:05;100726.93;;;14.16;84.80
54554;BME280;40450;55.848;-3.572;2022-08-30T06:00:36;100735.52;;;11.71;93.20
54554;BME280;40450;55.848;-3.572;2022-08-30T06:03:06;100733.58;;;13.80;88.16
54554;BME280;40450;55.848;-3.572;2022-08-30T06:05:41;100729.83;;;15.23;84.84
54554;BME280;40450;55.848;-3.572;2022-08-30T06:08:07;100734.25;;;13.22;88.22
54554;BME280;40450;55.848;-3.572;2022-08-30T06:10:37;100738.89;;;13.08;89.18
54554;BME280;40450;55.848;-3.572;2022-08-30T06:13:07;100740.59;;;13.02;89.75
54554;BME280;40450;55.848;-3.572;2022-08-30T06:15:38;100744.37;;;11.99;93.02
54554;BME280;40450;55.848;-3.572;2022-08-30T06:18:08;100745.09;;;13.50;90.49
54554;BME280;40450;55.848;-3.572;2022-08-30T06:20:40;100750.27;;;12.40;91.13
54554;BME280;40450;55.848;-3.572;2022-08-30T06:23:10;100749.23;;;12.20;90.96
54554;BME280;40450;55.848;-3.572;2022-08-30T06:25:39;100747.54;;;11.67;92.26
54554;BME280;40450;55.848;-3.572;2022-08-30T06:28:10;100749.06;;;11.53;93.71
54554;BME280;40450;55.848;-3.572;2022-08-30T06:30:41;100753.69;;;11.35;93.86
54554;BME280;40450;55.848;-3.572;2022-08-30T06:33:11;100746.95;;;13.44;90.38
54554;BME280;40450;55.848;-3.572;2022-08-30T06:35:41;100744.48;;;15.16;84.12
54554;BME280;40450;55.848;-3.572;2022-08-30T06:38:11;100749.41;;;14.55;84.84
54554;BME280;40450;55.848;-3.572;2022-08-30T06:40:42;100750.95;;;14.39;83.78
54554;BME280;40450;55.848;-3.572;2022-08-30T06:43:12;100745.58;;;16.42;80.95
54554;BME280;40450;55.848;-3.572;2022-08-30T06:45:42;100747.15;;;16.47;79.22
54554;BME280;40450;55.848;-3.572;2022-08-30T06:48:13;100755.01;;;13.49;86.00
54554;BME280;40450;55.848;-3.572;2022-08-30T06:50:43;100761.90;;;12.93;88.83
54554;BME280;40450;55.848;-3.572;2022-08-30T06:53:13;100760.56;;;14.13;86.30
54554;BME280;40450;55.848;-3.572;2022-08-30T06:55:44;100765.80;;;12.86;88.49
54554;BME280;40450;55.848;-3.572;2022-08-30T06:58:14;100768.00;;;11.31;93.43
54554;BME280;40450;55.848;-3.572;2022-08-30T07:00:44;100766.98;;;13.03;90.05
54554;BME280;40450;55.848;-3.572;2022-08-30T07:03:15;100763.47;;;13.44;89.38
54554;BME280;40450;55.848;-3.572;2022-08-30T07:05:47;100767.25;;;11.39;93.42
54554;BME280;40450;55.848;-3.572;2022-08-30T07:08:16;100766.43;;;11.81;92.69
54554;BME280;40450;55.848;-3.572;2022-08-30T07:10:47;100768.54;;;10.74;95.82
54554;BME280;40450;55.848;-3.572;2022-08-30T07:13:16;100766.51;;;12.19;92.40
54554;BME280;40450;55.848;-3.572;2022-08-30T07:15:46;100770.24;;;13.17;89.84
54554;BME280;40450;55.848;-3.572;2022-08-30T07:18:17;100773.18;;;12.96;90.70
54554;BME280;40450;55.848;-3.572;2022-08-30T07:20:47;100773.15;;;12.08;92.84
54554;BME280;40450;55.848;-3.572;2022-08-30T07:23:17;100773.21;;;13.41;89.18
54554;BME280;40450;55.848;-3.572;2022-08-30T07:25:48;100771.18;;;13.55;89.54
54554;BME280;40450;55.848;-3.572;2022-08-30T07:28:18;100771.62;;;13.72;88.59
54554;BME280;40450;55.848;-3.572;2022-08-30T07:30:49;100778.72;;;13.01;90.49
54554;BME280;40450;55.848;-3.572;2022-08-30T07:33:19;100770.16;;;14.98;87.60
54554;BME280;40450;55.848;-3.572;2022-08-30T07:35:50;100769.67;;;16.35;83.97
54554;BME280;40450;55.848;-3.572;2022-08-30T07:38:20;100781.07;;;13.42;89.71
54554;BME280;40450;55.848;-3.572;2022-08-30T07:40:50;100788.97;;;11.10;96.52
54554;BME280;40450;55.848;-3.572;2022-08-30T07:43:20;100784.98;;;14.01;89.83
54554;BME280;40450;55.848;-3.572;2022-08-30T07:45:51;100786.29;;;13.42;90.77
54554;BME280;40450;55.848;-3.572;2022-08-30T07:48:22;100778.27;;;15.48;87.50
54554;BME280;40450;55.848;-3.572;2022-08-30T07:50:53;100775.38;;;15.52;86.32
54554;BME280;40450;55.848;-3.572;2022-08-30T07:53:23;100779.95;;;13.28;89.70
54554;BME280;40450;55.848;-3.572;2022-08-30T07:55:54;100773.11;;;14.87;86.92
54554;BME280;40450;55.848;-3.572;2022-08-30T07:58:24;100773.27;;;13.58;89.46
54554;BME280;40450;55.848;-3.572;2022-08-30T08:00:54;100784.39;;;11.44;96.46
54554;BME280;40450;55.848;-3.572;2022-08-30T08:03:25;100782.51;;;11.74;96.04
54554;BME280;40450;55.848;-3.572;2022-08-30T08:05:55;100779.56;;;14.18;91.22
54554;BME280;40450;55.848;-3.572;2022-08-30T08:08:25;100785.67;;;13.11;92.44
54554;BME280;40450;55.848;-3.572;2022-08-30T08:10:56;100778.35;;;15.26;88.67
54554;BME280;40450;55.848;-3.572;2022-08-30T08:13:31;100788.31;;;13.03;92.33
54554;BME280;40450;55.848;-3.572;2022-08-30T08:15:56;100789.61;;;11.24;96.86
54554;BME280;40450;55.848;-3.572;2022-08-30T08:18:27;100787.26;;;13.62;92.07
54554;BME280;40450;55.848;-3.572;2022-08-30T08:20:57;100791.08;;;12.49;94.71
54554;BME280;40450;55.848;-3.572;2022-08-30T08:23:28;100795.22;;;13.05;93.98
54554;BME280;40450;55.848;-3.572;2022-08-30T08:25:58;100794.42;;;11.45;96.95
54554;BME280;40450;55.848;-3.572;2022-08-30T08:28:29;100799.24;;;11.53;97.35
54554;BME280;40450;55.848;-3.572;2022-08-30T08:30:58;100798.62;;;12.44;95.10
54554;BME280;40450;55.848;-3.572;2022-08-30T08:33:29;100794.80;;;11.83;96.33
54554;BME280;40450;55.848;-3.572;2022-08-30T08:36:04;100791.77;;;14.29;91.43
54554;BME280;40450;55.848;-3.572;2022-08-30T08:38:30;100794.63;;;15.17;87.43
54554;BME280;40450;55.848;-3.572;2022-08-30T08:41:05;100797.04;;;15.28;89.11
54554;BME280;40450;55.848;-3.572;2022-08-30T08:43:33;100791.53;;;16.45;86.03
54554;BME280;40450;55.848;-3.572;2022-08-30T08:46:08;100792.35;;;16.92;79.91
54554;BME280;40450;55.848;-3.572;2022-08-30T08:48:38;100789.54;;;16.43;83.19
54554;BME280;40450;55.848;-3.572;2022-08-30T08:51:01;100786.92;;;15.97;83.33
54554;BME280;40450;55.848;-3.572;2022-08-30T08:53:34;100792.38;;;17.40;80.43
54554;BME280;40450;55.848;-3.572;2022-08-30T08:56:11;100792.58;;;17.97;77.49
54554;BME280;40450;55.848;-3.572;2022-08-30T08:58:40;100799.29;;;16.52;78.71
54554;BME280;40450;55.848;-3.572;2022-08-30T09:01:02;100800.89;;;16.95;79.67
54554;BME280;40450;55.848;-3.572;2022-08-30T09:03:32;100798.00;;;17.65;77.19
54554;BME280;40450;55.848;-3.572;2022-08-30T09:06:20;100798.67;;;15.81;82.20
54554;BME280;40450;55.848;-3.572;2022-08-30T09:08:33;100803.17;;;14.93;84.66
54554;BME280;40450;55.848;-3.572;2022-08-30T09:11:05;100804.93;;;15.24;83.23
54554;BME280;40450;55.848;-3.572;2022-08-30T09:13:34;100798.41;;;16.02;82.53
54554;BME280;40450;55.848;-3.572;2022-08-30T09:16:04;100802.84;;;15.21;83.37
54554;BME280;40450;55.848;-3.572;2022-08-30T09:18:40;100803.84;;;16.73;79.21
54554;BME280;40450;55.848;-3.572;2022-08-30T09:21:06;100809.28;;;15.33;82.34
54554;BME280;40450;55.848;-3.572;2022-08-30T09:23:35;100811.67;;;15.35;82.67
54554;BME280;40450;55.848;-3.572;2022-08-30T09:26:07;100813.92;;;15.01;84.69
54554;BME280;40450;55.848;-3.572;2022-08-30T09:28:43;100812.09;;;17.49;77.77
54554;BME280;40450;55.848;-3.572;2022-08-30T09:31:16;100808.14;;;18.24;75.97
54554;BME280;40450;55.848;-3.572;2022-08-30T09:33:37;100816.48;;;16.35;79.02
54554;BME280;40450;55.848;-3.572;2022-08-30T09:36:18;100816.90;;;16.96;77.87
54554;BME280;40450;55.848;-3.572;2022-08-30T09:38:37;100819.35;;;14.01;86.34
54554;BME280;40450;55.848;-3.572;2022-08-30T09:43:38;100812.09;;;16.78;79.12
54554;BME280;40450;55.848;-3.572;2022-08-30T09:46:09;100812.47;;;15.72;82.40
54554;BME280;40450;55.848;-3.572;2022-08-30T09:48:40;100821.56;;;12.78;91.27
54554;BME280;40450;55.848;-3.572;2022-08-30T09:51:18;100824.14;;;11.63;94.35
54554;BME280;40450;55.848;-3.572;2022-08-30T09:53:43;100825.06;;;12.79;92.00
54554;BME280;40450;55.848;-3.572;2022-08-30T09:56:19;100819.13;;;11.82;94.18
54554;BME280;40450;55.848;-3.572;2022-08-30T09:58:51;100822.11;;;12.38;92.83
54554;BME280;40450;55.848;-3.572;2022-08-30T10:01:19;100821.80;;;12.75;92.19
54554;BME280;40450;55.848;-3.572;2022-08-30T10:03:43;100817.29;;;14.95;89.19
54554;BME280;40450;55.848;-3.572;2022-08-30T10:06:25;100817.48;;;15.20;84.66
54554;BME280;40450;55.848;-3.572;2022-08-30T10:08:50;100816.26;;;15.02;84.97
54554;BME280;40450;55.848;-3.572;2022-08-30T10:11:18;100819.16;;;14.99;83.87
54554;BME280;40450;55.848;-3.572;2022-08-30T10:13:52;100820.51;;;14.66;84.94
54554;BME280;40450;55.848;-3.572;2022-08-30T10:16:23;100822.99;;;15.13;84.27
54554;BME280;40450;55.848;-3.572;2022-08-30T10:18:49;100824.55;;;14.26;85.27
54554;BME280;40450;55.848;-3.572;2022-08-30T10:21:17;100824.20;;;15.90;81.16
54554;BME280;40450;55.848;-3.572;2022-08-30T10:23:47;100832.25;;;13.35;88.14
54554;BME280;40450;55.848;-3.572;2022-08-30T10:26:21;100828.29;;;13.46;88.84
54554;BME280;40450;55.848;-3.572;2022-08-30T10:28:53;100827.38;;;11.92;93.58
54554;BME280;40450;55.848;-3.572;2022-08-30T10:31:25;100827.98;;;13.85;88.26
54554;BME280;40450;55.848;-3.572;2022-08-30T10:33:51;100822.20;;;15.52;86.08
54554;BME280;40450;55.848;-3.572;2022-08-30T10:36:21;100820.86;;;15.76;82.51
54554;BME280;40450;55.848;-3.572;2022-08-30T10:38:48;100826.46;;;14.40;85.96
54554;BME280;40450;55.848;-3.572;2022-08-30T10:41:23;100833.18;;;12.94;91.06
54554;BME280;40450;55.848;-3.572;2022-08-30T10:43:59;100833.07;;;13.73;89.45
54554;BME280;40450;55.848;-3.572;2022-08-30T10:46:21;100837.05;;;13.31;90.06
54554;BME280;40450;55.848;-3.572;2022-08-30T10:48:48;100836.28;;;12.03;93.42
54554;BME280;40450;55.848;-3.572;2022-08-30T10:51:22;100834.43;;;12.90;90.87
54554;BME280;40450;55.848;-3.572;2022-08-30T10:53:51;100831.06;;;12.13;94.20
54554;BME280;40450;55.848;-3.572;2022-08-30T10:56:21;100835.45;;;12.76;92.94
54554;BME280;40450;55.848;-3.572;2022-08-30T10:58:48;100831.71;;;11.67;95.20
54554;BME280;40450;55.848;-3.572;2022-08-30T11:01:28;100831.66;;;11.36;95.71
54554;BME280;40450;55.848;-3.572;2022-08-30T11:06:24;100825.25;;;12.51;92.93
54554;BME280;40450;55.848;-3.572;2022-08-30T11:09:03;100826.71;;;11.84;93.84
54554;BME280;40450;55.848;-3.572;2022-08-30T11:11:27;100824.98;;;12.11;92.55
54554;BME280;40450;55.848;-3.572;2022-08-30T11:13:50;100828.67;;;13.18;90.79
54554;BME280;40450;55.848;-3.572;2022-08-30T11:18:53;100818.14;;;15.74;85.22
54554;BME280;40450;55.848;-3.572;2022-08-30T11:21:30;100815.36;;;16.05;82.21
54554;BME280;40450;55.848;-3.572;2022-08-30T11:23:57;100817.59;;;14.12;84.68
54554;BME280;40450;55.848;-3.572;2022-08-30T11:29:01;100815.90;;;14.35;86.84
54554;BME280;40450;55.848;-3.572;2022-08-30T11:31:28;100819.41;;;13.64;87.77
54554;BME280;40450;55.848;-3.572;2022-08-30T11:33:55;100822.15;;;13.82;88.37
54554;BME280;40450;55.848;-3.572;2022-08-30T11:39:00;100826.06;;;12.60;90.54
54554;BME280;40450;55.848;-3.572;2022-08-30T11:41:30;100827.09;;;11.44;95.29
54554;BME280;40450;55.848;-3.572;2022-08-30T11:43:54;100830.57;;;9.70;99.17
54554;BME280;40450;55.848;-3.572;2022-08-30T11:48:59;100833.66;;;12.88;92.92
54554;BME280;40450;55.848;-3.572;2022-08-30T11:54:07;100835.26;;;13.90;89.50
54554;BME280;40450;55.848;-3.572;2022-08-30T11:56:30;100838.36;;;12.92;90.79
54554;BME280;40450;55.848;-3.572;2022-08-30T11:58:58;100838.01;;;12.63;92.50
54554;BME280;40450;55.848;-3.572;2022-08-30T12:01:32;100843.30;;;13.48;91.56
54554;BME280;40450;55.848;-3.572;2022-08-30T12:03:59;100840.93;;;11.69;93.28
54554;BME280;40450;55.848;-3.572;2022-08-30T12:08:57;100832.26;;;14.23;87.45
54554;BME280;40450;55.848;-3.572;2022-08-30T12:13:58;100837.09;;;13.35;90.59
54554;BME280;40450;55.848;-3.572;2022-08-30T12:16:34;100838.05;;;13.44;88.12
54554;BME280;40450;55.848;-3.572;2022-08-30T12:21:35;100837.61;;;13.95;87.62
54554;BME280;40450;55.848;-3.572;2022-08-30T12:24:03;100834.81;;;15.05;84.44
54554;BME280;40450;55.848;-3.572;2022-08-30T12:26:33;100830.72;;;15.82;82.76
54554;BME280;40450;55.848;-3.572;2022-08-30T12:29:07;100828.99;;;16.39;80.51
54554;BME280;40450;55.848;-3.572;2022-08-30T12:31:30;100828.12;;;15.53;81.39
54554;BME280;40450;55.848;-3.572;2022-08-30T12:34:01;100828.36;;;17.04;79.80
54554;BME280;40450;55.848;-3.572;2022-08-30T12:36:35;100831.88;;;14.49;84.90
54554;BME280;40450;55.848;-3.572;2022-08-30T12:39:07;100831.96;;;14.53;86.64
54554;BME280;40450;55.848;-3.572;2022-08-30T12:41:31;100836.70;;;13.88;88.13
54554;BME280;40450;55.848;-3.572;2022-08-30T12:44:02;100843.65;;;11.28;95.83
54554;BME280;40450;55.848;-3.572;2022-08-30T12:46:32;100836.54;;;12.07;94.34
54554;BME280;40450;55.848;-3.572;2022-08-30T12:49:02;100837.68;;;13.19;90.98
54554;BME280;40450;55.848;-3.572;2022-08-30T12:51:38;100841.84;;;11.20;95.50
54554;BME280;40450;55.848;-3.572;2022-08-30T12:54:17;100842.72;;;10.20;98.40
54554;BME280;40450;55.848;-3.572;2022-08-30T12:59:04;100842.69;;;9.49;99.44
54554;BME280;40450;55.848;-3.572;2022-08-30T13:01:39;100838.81;;;11.87;95.02
54554;BME280;40450;55.848;-3.572;2022-08-30T13:04:12;100831.09;;;14.77;88.12
54554;BME280;40450;55.848;-3.572;2022-08-30T13:06:39;100836.26;;;13.85;87.86
54554;BME280;40450;55.848;-3.572;2022-08-30T13:09:05;100829.71;;;14.80;86.88
54554;BME280;40450;55.848;-3.572;2022-08-30T13:11:46;100839.41;;;12.79;89.99
54554;BME280;40450;55.848;-3.572;2022-08-30T13:16:41;100837.11;;;13.08;89.53
54554;BME280;40450;55.848;-3.572;2022-08-30T13:21:46;100830.58;;;12.89;89.39
54554;BME280;40450;55.848;-3.572;2022-08-30T13:24:07;100831.82;;;12.91;90.10
54554;BME280;40450;55.848;-3.572;2022-08-30T13:26:37;100830.32;;;12.98;89.55
54554;BME280;40450;55.848;-3.572;2022-08-30T13:29:13;100831.08;;;13.43;87.74